Time;durP1;ratioP1;P1;durP2;ratioP2;P2;SDS_P1;SDS_P2;PMS_P1;PMS_P2;Temp;Humidity;BMP_temperature;BMP_pressure;BME280_temperature;BME280_humidity;BME280_pressure;Samples;Min_cycle;Max_cycle;Signal;HPM_P1;HPM_P2
2022/02/12 00:00:05;;;;;;;;;;;22.00;32.10;;;;;;5038558;28;19912;-53
2022/02/12 00:02:37;;;;;;;;;;;22.00;32.10;;;;;;5037119;28;19916;-51
2022/02/12 00:05:03;;;;;;;;;;;22.00;32.10;;;;;;5036892;28;19905;-53
2022/02/12 00:07:28;;;;;;;;;;;22.00;32.00;;;;;;5045274;28;19909;-54
2022/02/12 00:09:54;;;;;;;;;;;21.90;32.00;;;;;;5037911;28;19913;-57
2022/02/12 00:12:20;;;;;;;;;;;21.90;32.00;;;;;;5039370;28;19905;-54
2022/02/12 00:14:47;;;;;;;;;;;21.90;32.00;;;;;;5038932;28;20336;-52
2022/02/12 00:17:13;;;;;;;;;;;21.90;32.00;;;;;;5035692;28;19908;-58
2022/02/12 00:19:39;;;;;;;;;;;21.90;32.60;;;;;;5053175;28;19904;-53
2022/02/12 00:22:05;;;;;;;;;;;21.90;32.00;;;;;;5043189;28;19971;-54
2022/02/12 00:24:30;;;;;;;;;;;21.90;32.00;;;;;;5056208;28;19919;-56
2022/02/12 00:26:56;;;;;;;;;;;21.90;32.00;;;;;;5041027;28;19926;-55
2022/02/12 00:29:21;;;;;;;;;;;21.90;32.00;;;;;;5056017;28;19974;-58
2022/02/12 00:31:47;;;;;;;;;;;21.90;32.00;;;;;;5040726;28;19959;-57
2022/02/12 00:34:13;;;;;;;;;;;21.90;32.00;;;;;;5039036;28;20023;-54
2022/02/12 00:36:38;;;;;;;;;;;21.90;32.00;;;;;;5040653;28;19909;-58
2022/02/12 00:39:04;;;;;;;;;;;21.90;31.90;;;;;;5054315;28;20370;-54
2022/02/12 00:41:31;;;;;;;;;;;21.80;31.80;;;;;;5040053;28;19905;-57
2022/02/12 00:43:56;;;;;;;;;;;21.80;31.80;;;;;;5043680;28;19967;-55
2022/02/12 00:46:22;;;;;;;;;;;21.80;32.50;;;;;;5039984;28;19909;-52
2022/02/12 00:48:48;;;;;;;;;;;21.80;31.80;;;;;;5041245;28;19928;-57
2022/02/12 00:51:14;;;;;;;;;;;21.80;31.80;;;;;;5038622;28;20313;-56
2022/02/12 00:53:40;;;;;;;;;;;21.80;31.80;;;;;;5047573;28;19909;-58
2022/02/12 00:56:06;;;;;;;;;;;21.80;31.80;;;;;;5053191;28;19909;-56
2022/02/12 00:58:31;;;;;;;;;;;21.80;31.70;;;;;;5042554;28;20351;-59
2022/02/12 01:00:57;;;;;;;;;;;21.80;31.70;;;;;;5037611;28;19912;-55
2022/02/12 01:03:23;;;;;;;;;;;21.70;31.70;;;;;;5039709;28;20247;-56
2022/02/12 01:05:48;;;;;;;;;;;21.70;31.60;;;;;;5039553;28;19947;-55
2022/02/12 01:08:14;;;;;;;;;;;21.70;31.70;;;;;;5043074;28;19929;-56
2022/02/12 01:10:39;;;;;;;;;;;21.70;31.60;;;;;;5045548;28;19908;-56
2022/02/12 01:13:05;;;;;;;;;;;21.70;31.60;;;;;;5039782;28;19905;-57
2022/02/12 01:15:33;;;;;;;;;;;21.70;31.60;;;;;;5047753;28;19905;-52
2022/02/12 01:17:59;;;;;;;;;;;21.70;31.60;;;;;;5049757;28;19975;-57
2022/02/12 01:20:24;;;;;;;;;;;21.70;31.50;;;;;;5021332;28;19913;-58
2022/02/12 01:22:51;;;;;;;;;;;21.70;31.50;;;;;;5045661;28;20312;-56
2022/02/12 01:25:17;;;;;;;;;;;21.70;31.50;;;;;;5037009;28;19916;-58
2022/02/12 01:27:42;;;;;;;;;;;21.70;31.50;;;;;;5037064;28;19999;-55
2022/02/12 01:30:09;;;;;;;;;;;21.70;31.50;;;;;;5037623;28;19913;-55
2022/02/12 01:32:35;;;;;;;;;;;21.70;31.50;;;;;;5039430;28;19905;-56
2022/02/12 01:35:00;;;;;;;;;;;21.70;31.50;;;;;;5052639;28;19905;-54
2022/02/12 01:37:26;;;;;;;;;;;21.70;31.50;;;;;;5053517;28;19931;-59
2022/02/12 01:39:52;;;;;;;;;;;21.70;31.40;;;;;;5023363;28;19908;-54
2022/02/12 01:42:18;;;;;;;;;;;21.60;32.00;;;;;;5040128;28;20208;-56
2022/02/12 01:44:44;;;;;;;;;;;21.60;31.40;;;;;;5042403;28;19909;-58
2022/02/12 01:47:10;;;;;;;;;;;21.70;31.40;;;;;;5041789;28;19995;-57
2022/02/12 01:49:36;;;;;;;;;;;21.70;31.40;;;;;;5047244;28;20002;-54
2022/02/12 01:52:05;;;;;;;;;;;21.60;31.30;;;;;;5051569;28;19905;-56
2022/02/12 01:54:31;;;;;;;;;;;21.60;31.30;;;;;;5054043;28;19904;-54
2022/02/12 01:56:58;;;;;;;;;;;21.60;31.30;;;;;;5047440;28;19908;-56
2022/02/12 01:59:24;;;;;;;;;;;21.60;31.30;;;;;;5042342;28;19924;-56
2022/02/12 02:01:50;;;;;;;;;;;21.60;31.30;;;;;;5039436;28;20433;-57
2022/02/12 02:04:16;;;;;;;;;;;21.60;31.30;;;;;;5022695;28;20003;-57
2022/02/12 02:06:43;;;;;;;;;;;21.60;31.30;;;;;;5036476;28;20032;-57
2022/02/12 02:09:09;;;;;;;;;;;21.60;31.30;;;;;;5038830;28;19913;-60
2022/02/12 02:11:36;;;;;;;;;;;21.60;31.20;;;;;;5038257;28;19905;-58
2022/02/12 02:14:03;;;;;;;;;;;21.60;31.20;;;;;;5037305;28;20346;-58
2022/02/12 02:16:29;;;;;;;;;;;21.60;31.30;;;;;;5053567;28;20286;-54
2022/02/12 02:18:55;;;;;;;;;;;21.60;31.20;;;;;;5050170;28;19909;-55
2022/02/12 02:21:22;;;;;;;;;;;21.50;31.10;;;;;;5042236;28;19967;-58
2022/02/12 02:23:48;;;;;;;;;;;21.50;31.20;;;;;;5044607;28;20271;-55
2022/02/12 02:26:14;;;;;;;;;;;21.50;31.10;;;;;;5038142;28;19963;-53
2022/02/12 02:28:40;;;;;;;;;;;21.50;31.10;;;;;;5040298;28;20007;-57
2022/02/12 02:31:06;;;;;;;;;;;21.50;31.10;;;;;;5051338;28;20004;-58
2022/02/12 02:33:31;;;;;;;;;;;21.50;31.20;;;;;;5037459;28;19905;-59
2022/02/12 02:35:57;;;;;;;;;;;21.50;31.10;;;;;;5039723;28;19912;-58
2022/02/12 02:38:24;;;;;;;;;;;21.50;31.10;;;;;;5043192;28;19939;-57
2022/02/12 02:40:52;;;;;;;;;;;21.50;31.10;;;;;;5033915;28;19920;-56
2022/02/12 02:43:18;;;;;;;;;;;21.50;31.10;;;;;;5036172;28;19905;-59
2022/02/12 02:45:43;;;;;;;;;;;21.50;31.10;;;;;;5036467;28;20049;-54
2022/02/12 02:48:09;;;;;;;;;;;21.50;31.10;;;;;;5048113;28;19913;-53
2022/02/12 02:56:04;;;;;;;;;;;21.40;31.10;;;;;;5050202;28;20208;-55
2022/02/12 02:58:31;;;;;;;;;;;21.50;31.10;;;;;;5051770;28;19911;-59
2022/02/12 03:00:57;;;;;;;;;;;21.40;31.10;;;;;;5052970;28;19934;-57
2022/02/12 03:03:23;;;;;;;;;;;21.40;31.10;;;;;;5043194;28;19904;-52
2022/02/12 03:05:48;;;;;;;;;;;21.40;31.10;;;;;;5051728;28;19966;-55
2022/02/12 03:08:14;;;;;;;;;;;21.40;31.10;;;;;;5043378;28;19919;-52
2022/02/12 03:10:40;;;;;;;;;;;21.40;31.10;;;;;;5045577;28;19959;-56
2022/02/12 03:13:06;;;;;;;;;;;21.40;31.10;;;;;;5043807;28;19916;-58
2022/02/12 03:15:32;;;;;;;;;;;21.40;31.10;;;;;;5051935;28;19917;-57
2022/02/12 03:17:57;;;;;;;;;;;21.40;31.10;;;;;;5040862;28;19916;-54
2022/02/12 03:20:23;;;;;;;;;;;21.40;31.10;;;;;;5047988;28;19953;-55
2022/02/12 03:22:49;;;;;;;;;;;21.40;31.10;;;;;;5052757;28;19916;-55
2022/02/12 03:25:14;;;;;;;;;;;21.40;31.10;;;;;;5048742;28;19904;-53
2022/02/12 03:27:40;;;;;;;;;;;21.40;31.10;;;;;;5045917;28;19915;-57
2022/02/12 03:30:06;;;;;;;;;;;21.40;31.10;;;;;;5040175;28;19909;-58
2022/02/12 03:32:31;;;;;;;;;;;21.40;31.10;;;;;;5035035;28;20239;-54
2022/02/12 03:34:57;;;;;;;;;;;21.40;31.10;;;;;;5035909;28;19995;-56
2022/02/12 03:37:26;;;;;;;;;;;21.40;31.10;;;;;;5045772;28;19944;-55
2022/02/12 03:39:52;;;;;;;;;;;21.30;31.10;;;;;;5044592;28;19967;-53
2022/02/12 03:42:17;;;;;;;;;;;21.30;31.10;;;;;;5048386;28;20329;-57
2022/02/12 03:44:43;;;;;;;;;;;21.30;31.10;;;;;;5049350;28;19927;-54
2022/02/12 03:47:09;;;;;;;;;;;21.30;31.10;;;;;;5039773;28;19905;-51
2022/02/12 03:49:35;;;;;;;;;;;21.30;31.10;;;;;;5043784;28;19912;-56
2022/02/12 03:52:00;;;;;;;;;;;21.30;31.10;;;;;;5056098;28;20361;-57
2022/02/12 03:54:26;;;;;;;;;;;21.30;31.10;;;;;;5044316;28;19904;-55
2022/02/12 03:56:52;;;;;;;;;;;21.30;31.10;;;;;;5036714;28;19947;-51
2022/02/12 03:59:17;;;;;;;;;;;21.30;31.10;;;;;;5055118;28;19928;-54
2022/02/12 04:01:43;;;;;;;;;;;21.30;31.10;;;;;;5040338;28;21538;-57
2022/02/12 04:04:10;;;;;;;;;;;21.30;31.10;;;;;;5055075;28;19967;-54
2022/02/12 04:06:35;;;;;;;;;;;21.30;31.10;;;;;;5039235;28;19959;-52
2022/02/12 04:09:01;;;;;;;;;;;21.30;31.10;;;;;;5039350;28;20271;-52
2022/02/12 04:11:27;;;;;;;;;;;21.30;31.10;;;;;;5053820;28;20215;-55
2022/02/12 04:13:52;;;;;;;;;;;21.30;31.00;;;;;;5039978;28;19905;-56
2022/02/12 04:16:18;;;;;;;;;;;21.30;31.00;;;;;;5040953;28;19958;-55
2022/02/12 04:18:45;;;;;;;;;;;21.30;31.00;;;;;;5048982;28;20022;-53
2022/02/12 04:21:11;;;;;;;;;;;21.30;31.00;;;;;;5045850;28;19912;-56
2022/02/12 04:23:37;;;;;;;;;;;21.30;31.00;;;;;;5056241;28;19905;-50
2022/02/12 04:26:05;;;;;;;;;;;21.30;31.00;;;;;;5045222;28;20275;-60
2022/02/12 04:28:36;;;;;;;;;;;21.30;30.90;;;;;;5045808;28;19928;-56
2022/02/12 04:31:02;;;;;;;;;;;21.30;31.00;;;;;;5043916;28;19909;-53
2022/02/12 04:33:28;;;;;;;;;;;21.20;30.90;;;;;;5039001;28;20024;-53
2022/02/12 04:35:53;;;;;;;;;;;21.20;30.90;;;;;;5045635;28;19991;-58
2022/02/12 04:38:19;;;;;;;;;;;21.20;30.90;;;;;;5055037;28;19946;-54
2022/02/12 04:40:45;;;;;;;;;;;21.20;31.50;;;;;;5054248;28;19904;-56
2022/02/12 04:43:10;;;;;;;;;;;21.20;30.90;;;;;;5055404;28;19916;-57
2022/02/12 04:45:36;;;;;;;;;;;21.20;30.90;;;;;;5049911;28;19917;-54
2022/02/12 04:48:02;;;;;;;;;;;21.20;30.90;;;;;;5049575;28;19919;-52
2022/02/12 04:50:28;;;;;;;;;;;21.20;30.90;;;;;;5051087;28;20174;-51
2022/02/12 04:52:53;;;;;;;;;;;21.20;30.90;;;;;;5038788;28;19905;-54
2022/02/12 04:55:19;;;;;;;;;;;21.20;30.90;;;;;;5041450;28;19948;-53
2022/02/12 04:57:45;;;;;;;;;;;21.20;30.90;;;;;;5054830;28;19905;-55
2022/02/12 05:00:11;;;;;;;;;;;21.20;30.90;;;;;;5043511;28;19920;-51
2022/02/12 05:02:36;;;;;;;;;;;21.20;30.90;;;;;;5048675;28;19905;-51
2022/02/12 05:05:02;;;;;;;;;;;21.20;31.50;;;;;;5038534;28;19905;-54
2022/02/12 05:07:28;;;;;;;;;;;21.20;30.90;;;;;;5052411;28;19932;-57
2022/02/12 05:09:54;;;;;;;;;;;21.20;30.90;;;;;;5045443;28;19912;-56
2022/02/12 05:12:19;;;;;;;;;;;21.20;30.90;;;;;;5050367;28;20007;-53
2022/02/12 05:14:45;;;;;;;;;;;21.20;30.90;;;;;;5054037;28;19912;-56
2022/02/12 05:17:11;;;;;;;;;;;21.20;30.80;;;;;;5044244;28;19951;-54
2022/02/12 05:19:36;;;;;;;;;;;21.20;30.80;;;;;;5042481;28;19916;-55
2022/02/12 05:22:02;;;;;;;;;;;21.20;30.90;;;;;;5028115;28;20354;-60
2022/02/12 05:24:28;;;;;;;;;;;21.10;30.80;;;;;;5043012;28;20298;-58
2022/02/12 05:26:53;;;;;;;;;;;21.10;30.80;;;;;;5043251;28;19904;-57
2022/02/12 05:29:21;;;;;;;;;;;21.10;30.70;;;;;;5037933;28;20063;-54
2022/02/12 05:31:46;;;;;;;;;;;21.10;30.70;;;;;;5024552;28;20003;-56
2022/02/12 05:34:12;;;;;;;;;;;21.10;30.70;;;;;;5040019;28;19916;-57
2022/02/12 05:36:37;;;;;;;;;;;21.10;30.70;;;;;;5042173;28;20290;-54
2022/02/12 05:39:04;;;;;;;;;;;21.10;30.70;;;;;;5053788;28;20216;-56
2022/02/12 05:41:30;;;;;;;;;;;21.10;30.70;;;;;;5051567;28;19905;-59
2022/02/12 05:43:56;;;;;;;;;;;21.10;30.70;;;;;;5054725;28;19920;-51
2022/02/12 05:46:21;;;;;;;;;;;21.10;30.70;;;;;;5053372;28;19905;-58
2022/02/12 05:48:47;;;;;;;;;;;21.10;30.60;;;;;;5039368;28;19913;-57
2022/02/12 05:51:18;;;;;;;;;;;21.10;30.70;;;;;;5038022;28;19905;-55
2022/02/12 05:53:44;;;;;;;;;;;21.10;30.60;;;;;;5047530;28;19912;-57
2022/02/12 05:56:10;;;;;;;;;;;21.10;30.60;;;;;;5042775;28;19931;-57
2022/02/12 05:58:36;;;;;;;;;;;21.10;30.60;;;;;;5038435;28;19905;-57
2022/02/12 06:01:02;;;;;;;;;;;21.10;30.60;;;;;;5050319;28;20356;-58
2022/02/12 06:03:30;;;;;;;;;;;21.10;30.60;;;;;;5046915;28;19999;-57
2022/02/12 06:05:55;;;;;;;;;;;21.10;30.60;;;;;;5054248;28;20245;-53
2022/02/12 06:08:21;;;;;;;;;;;21.10;30.60;;;;;;5051087;28;19963;-54
2022/02/12 06:10:50;;;;;;;;;;;21.10;30.60;;;;;;5037156;28;19905;-59
2022/02/12 06:13:16;;;;;;;;;;;21.10;30.50;;;;;;5044935;28;19913;-54
2022/02/12 06:15:42;;;;;;;;;;;21.10;30.50;;;;;;5041395;28;19915;-56
2022/02/12 06:18:08;;;;;;;;;;;21.10;30.50;;;;;;5045433;28;19908;-52
2022/02/12 06:20:33;;;;;;;;;;;21.10;31.10;;;;;;5051019;28;19913;-56
2022/02/12 06:22:59;;;;;;;;;;;21.00;30.50;;;;;;5047300;28;19904;-56
2022/02/12 06:25:25;;;;;;;;;;;21.00;30.50;;;;;;5036738;28;19917;-52
2022/02/12 06:27:51;;;;;;;;;;;21.00;30.50;;;;;;5040506;28;19915;-51
2022/02/12 06:30:17;;;;;;;;;;;21.00;30.50;;;;;;5047523;28;19904;-53
2022/02/12 06:32:43;;;;;;;;;;;21.00;30.50;;;;;;5048436;28;19994;-55
2022/02/12 06:35:09;;;;;;;;;;;21.00;30.40;;;;;;5039453;28;19908;-55
2022/02/12 06:37:34;;;;;;;;;;;21.00;30.50;;;;;;5037388;28;19940;-54
2022/02/12 06:40:00;;;;;;;;;;;21.00;30.40;;;;;;5039129;28;19948;-49
2022/02/12 06:42:26;;;;;;;;;;;21.00;31.10;;;;;;5036549;28;20004;-56
2022/02/12 06:44:51;;;;;;;;;;;21.00;30.40;;;;;;5048657;28;19973;-53
2022/02/12 06:47:17;;;;;;;;;;;21.00;30.40;;;;;;5035825;28;19905;-57
2022/02/12 06:49:43;;;;;;;;;;;21.00;30.50;;;;;;5035653;28;20011;-53
2022/02/12 06:52:08;;;;;;;;;;;21.00;30.50;;;;;;5035599;28;20004;-54
2022/02/12 06:54:34;;;;;;;;;;;21.00;30.50;;;;;;5038886;28;19999;-56
2022/02/12 06:57:00;;;;;;;;;;;21.00;30.40;;;;;;5036595;28;19912;-56
2022/02/12 06:59:25;;;;;;;;;;;21.00;30.50;;;;;;5046034;28;20375;-52
2022/02/12 07:01:51;;;;;;;;;;;21.00;30.40;;;;;;5036829;28;19917;-54
2022/02/12 07:04:17;;;;;;;;;;;21.00;30.40;;;;;;5051925;28;20274;-50
2022/02/12 07:06:43;;;;;;;;;;;21.00;30.40;;;;;;5051735;28;19919;-52
2022/02/12 07:09:11;;;;;;;;;;;21.00;30.40;;;;;;5045154;28;20354;-52
2022/02/12 07:11:37;;;;;;;;;;;21.00;30.40;;;;;;5036654;28;19916;-51
2022/02/12 07:14:02;;;;;;;;;;;21.00;30.40;;;;;;5046234;28;19905;-56
2022/02/12 07:16:28;;;;;;;;;;;20.90;30.40;;;;;;5043319;28;20355;-53
2022/02/12 07:18:54;;;;;;;;;;;21.00;30.40;;;;;;5037585;28;19959;-59
2022/02/12 07:21:19;;;;;;;;;;;20.90;30.30;;;;;;5036336;28;19905;-55
2022/02/12 07:23:45;;;;;;;;;;;20.90;30.30;;;;;;5041850;28;19904;-55
2022/02/12 07:26:11;;;;;;;;;;;20.90;30.30;;;;;;5051963;28;19904;-54
2022/02/12 07:28:40;;;;;;;;;;;21.00;30.40;;;;;;5044778;28;20240;-49
2022/02/12 07:31:11;;;;;;;;;;;21.00;31.00;;;;;;5033948;28;19904;-53
2022/02/12 07:33:36;;;;;;;;;;;20.90;30.40;;;;;;5048469;28;19916;-57
2022/02/12 07:36:02;;;;;;;;;;;20.90;30.40;;;;;;5046495;28;19904;-57
2022/02/12 07:38:28;;;;;;;;;;;20.90;30.40;;;;;;5046716;28;19908;-54
2022/02/12 07:40:53;;;;;;;;;;;20.90;30.40;;;;;;5048980;28;20232;-53
2022/02/12 07:43:19;;;;;;;;;;;20.90;30.40;;;;;;5039118;28;19904;-55
2022/02/12 07:45:45;;;;;;;;;;;20.90;30.40;;;;;;5049290;28;19904;-56
2022/02/12 07:48:10;;;;;;;;;;;20.90;30.40;;;;;;5051981;28;19921;-53
2022/02/12 07:50:36;;;;;;;;;;;21.00;30.40;;;;;;5049127;28;19936;-53
2022/02/12 07:53:02;;;;;;;;;;;21.10;30.30;;;;;;5050801;28;20020;-51
2022/02/12 07:55:30;;;;;;;;;;;21.20;30.30;;;;;;5043182;28;19960;-52
2022/02/12 07:57:56;;;;;;;;;;;21.30;30.20;;;;;;5034158;28;19916;-57
2022/02/12 08:00:22;;;;;;;;;;;21.30;30.10;;;;;;5024494;28;19924;-56
2022/02/12 08:02:49;;;;;;;;;;;21.40;30.00;;;;;;5039347;28;20215;-55
2022/02/12 08:05:14;;;;;;;;;;;21.50;30.00;;;;;;5036863;28;20008;-55
2022/02/12 08:07:40;;;;;;;;;;;21.60;30.00;;;;;;5037702;28;19992;-46
2022/02/12 08:12:51;;;;;;;;;;;21.80;29.90;;;;;;5037783;28;20398;-51
2022/02/12 08:15:17;;;;;;;;;;;21.90;29.80;;;;;;5019605;28;19913;-53
2022/02/12 08:17:43;;;;;;;;;;;21.90;29.70;;;;;;5036437;28;19952;-57
2022/02/12 08:20:09;;;;;;;;;;;22.00;29.60;;;;;;5047223;28;19909;-59
2022/02/12 08:22:34;;;;;;;;;;;22.10;29.60;;;;;;5050828;28;19915;-57
2022/02/12 08:25:00;;;;;;;;;;;22.10;29.50;;;;;;5046163;28;19916;-54
2022/02/12 08:27:28;;;;;;;;;;;22.20;29.50;;;;;;5052942;28;19904;-52
2022/02/12 08:29:54;;;;;;;;;;;22.30;29.50;;;;;;5045103;28;19967;-54
2022/02/12 08:32:21;;;;;;;;;;;22.30;29.40;;;;;;5046985;28;19916;-54
2022/02/12 08:34:47;;;;;;;;;;;22.40;29.40;;;;;;5044323;28;19904;-55
2022/02/12 08:37:13;;;;;;;;;;;22.50;29.30;;;;;;5038810;28;20051;-53
2022/02/12 08:39:39;;;;;;;;;;;22.60;29.30;;;;;;5050548;28;20322;-56
2022/02/12 08:42:05;;;;;;;;;;;22.60;29.20;;;;;;5049892;28;19904;-59
2022/02/12 08:44:30;;;;;;;;;;;22.70;29.20;;;;;;5056501;28;20050;-57
2022/02/12 08:46:56;;;;;;;;;;;22.80;29.20;;;;;;5057553;28;19909;-54
2022/02/12 08:49:21;;;;;;;;;;;22.80;29.20;;;;;;5051568;28;19913;-56
2022/02/12 08:51:47;;;;;;;;;;;22.90;29.20;;;;;;5038707;28;19909;-55
2022/02/12 08:54:13;;;;;;;;;;;22.90;29.10;;;;;;5038920;28;20003;-53
2022/02/12 08:56:40;;;;;;;;;;;22.90;29.10;;;;;;5050139;28;19998;-56
2022/02/12 08:59:05;;;;;;;;;;;22.90;29.10;;;;;;5046873;28;19927;-55
2022/02/12 09:01:32;;;;;;;;;;;23.00;29.10;;;;;;5036763;28;20243;-54
2022/02/12 09:03:58;;;;;;;;;;;23.00;29.00;;;;;;5046963;28;19975;-54
2022/02/12 09:06:24;;;;;;;;;;;23.10;29.10;;;;;;5042573;28;20395;-56
2022/02/12 09:08:51;;;;;;;;;;;23.10;29.00;;;;;;5046968;28;19912;-58
2022/02/12 09:11:18;;;;;;;;;;;23.10;29.00;;;;;;5042405;28;20197;-58
2022/02/12 09:13:43;;;;;;;;;;;23.10;29.00;;;;;;5044734;28;19909;-58
2022/02/12 09:16:09;;;;;;;;;;;23.20;29.00;;;;;;5020908;28;19915;-56
2022/02/12 09:18:35;;;;;;;;;;;23.20;29.00;;;;;;5042809;28;19904;-57
2022/02/12 09:21:00;;;;;;;;;;;23.20;29.00;;;;;;5041070;28;19925;-58
2022/02/12 09:23:28;;;;;;;;;;;23.20;29.00;;;;;;5043558;28;19978;-53
2022/02/12 09:25:54;;;;;;;;;;;23.20;28.90;;;;;;5038226;28;19916;-56
2022/02/12 09:28:19;;;;;;;;;;;23.20;28.90;;;;;;5042891;28;19913;-55
2022/02/12 09:30:45;;;;;;;;;;;23.20;28.90;;;;;;5048161;28;19970;-56
2022/02/12 09:33:11;;;;;;;;;;;23.20;29.00;;;;;;5037670;28;19905;-53
2022/02/12 09:35:36;;;;;;;;;;;23.20;29.50;;;;;;5044298;28;19908;-54
2022/02/12 09:38:02;;;;;;;;;;;23.20;29.10;;;;;;5040640;28;20336;-55
2022/02/12 09:40:30;;;;;;;;;;;23.20;29.10;;;;;;5050579;28;20160;-54
2022/02/12 09:42:59;;;;;;;;;;;23.10;29.20;;;;;;5051698;28;19909;-57
2022/02/12 09:45:31;;;;;;;;;;;23.10;29.30;;;;;;5052847;28;19995;-56
2022/02/12 09:47:57;;;;;;;;;;;23.10;29.40;;;;;;5051474;28;19920;-54
2022/02/12 09:50:22;;;;;;;;;;;23.10;29.50;;;;;;5038413;28;19905;-54
2022/02/12 09:52:50;;;;;;;;;;;23.10;29.60;;;;;;5038715;28;20255;-55
2022/02/12 09:55:16;;;;;;;;;;;23.10;29.60;;;;;;5041621;28;19905;-53
2022/02/12 09:57:42;;;;;;;;;;;23.00;29.70;;;;;;5045871;28;20395;-57
2022/02/12 10:00:10;;;;;;;;;;;23.00;29.70;;;;;;5049445;28;19999;-55
2022/02/12 10:02:35;;;;;;;;;;;23.10;29.80;;;;;;5038057;28;20311;-52
2022/02/12 10:05:20;;;;;;;;;;;23.10;29.90;;;;;;5035969;28;19932;-46
2022/02/12 10:07:51;;;;;;;;;;;23.10;29.90;;;;;;5052381;28;19967;-51
2022/02/12 10:10:17;;;;;;;;;;;23.10;29.90;;;;;;5045121;28;20328;-53
2022/02/12 10:12:43;;;;;;;;;;;23.10;29.90;;;;;;5049028;28;19919;-52
2022/02/12 10:15:26;;;;;;;;;;;23.10;30.00;;;;;;5031795;28;19909;-51
2022/02/12 10:17:53;;;;;;;;;;;23.10;30.00;;;;;;5052409;28;19917;-52
2022/02/12 10:20:23;;;;;;;;;;;23.10;30.00;;;;;;5037485;28;19912;-53
2022/02/12 10:22:48;;;;;;;;;;;23.10;30.10;;;;;;5048392;28;19912;-56
2022/02/12 10:25:18;;;;;;;;;;;23.10;30.10;;;;;;5042648;28;20351;-55
2022/02/12 10:27:44;;;;;;;;;;;23.10;30.10;;;;;;5046102;28;19975;-59
2022/02/12 10:30:10;;;;;;;;;;;23.10;30.20;;;;;;5039307;28;19920;-57
2022/02/12 10:32:36;;;;;;;;;;;23.10;30.20;;;;;;5023307;28;19904;-59
2022/02/12 10:35:07;;;;;;;;;;;23.10;30.40;;;;;;5047460;28;19952;-58
2022/02/12 10:37:40;;;;;;;;;;;23.10;30.50;;;;;;5034967;28;19963;-59
2022/02/12 10:40:06;;;;;;;;;;;23.20;30.50;;;;;;5039826;28;19928;-57
2022/02/12 10:42:33;;;;;;;;;;;23.20;30.40;;;;;;5036807;28;20323;-63
2022/02/12 10:44:59;;;;;;;;;;;23.20;30.40;;;;;;5042610;28;19909;-53
2022/02/12 10:47:25;;;;;;;;;;;23.20;30.40;;;;;;5043813;28;20363;-61
2022/02/12 10:49:51;;;;;;;;;;;23.20;30.40;;;;;;5049081;28;20247;-60
2022/02/12 10:52:17;;;;;;;;;;;23.30;30.50;;;;;;5048645;28;19905;-62
2022/02/12 10:55:02;;;;;;;;;;;23.30;30.50;;;;;;5041818;28;19996;-60
2022/02/12 10:57:47;;;;;;;;;;;23.30;30.50;;;;;;5049982;28;19936;-56
2022/02/12 11:00:13;;;;;;;;;;;23.30;30.50;;;;;;5049918;28;20356;-58
2022/02/12 11:02:39;;;;;;;;;;;23.30;30.50;;;;;;5035842;28;19917;-56
2022/02/12 11:05:07;;;;;;;;;;;23.30;30.40;;;;;;5049513;28;19905;-57
2022/02/12 11:07:33;;;;;;;;;;;23.30;30.40;;;;;;5036529;28;19955;-59
2022/02/12 11:09:59;;;;;;;;;;;23.30;30.30;;;;;;5044657;28;19927;-58
2022/02/12 11:12:29;;;;;;;;;;;23.20;30.30;;;;;;5049290;28;20244;-59
2022/02/12 11:14:55;;;;;;;;;;;23.20;30.20;;;;;;5043252;28;19998;-58
2022/02/12 11:17:29;;;;;;;;;;;23.20;30.20;;;;;;5051337;28;19999;-57
2022/02/12 11:19:55;;;;;;;;;;;23.10;30.20;;;;;;5042455;28;19904;-59
2022/02/12 11:22:20;;;;;;;;;;;23.10;30.20;;;;;;5040416;28;19912;-58
2022/02/12 11:24:46;;;;;;;;;;;23.10;30.20;;;;;;5053341;28;19958;-58
2022/02/12 11:27:19;;;;;;;;;;;23.00;30.20;;;;;;5047788;28;19952;-59
2022/02/12 11:29:46;;;;;;;;;;;23.00;30.30;;;;;;5047264;28;19960;-57
2022/02/12 11:32:14;;;;;;;;;;;23.10;30.40;;;;;;5048204;28;19915;-58
2022/02/12 11:34:41;;;;;;;;;;;23.10;30.40;;;;;;5028138;28;19917;-56
2022/02/12 11:37:12;;;;;;;;;;;23.10;30.40;;;;;;5043827;28;20053;-58
2022/02/12 11:39:38;;;;;;;;;;;23.10;30.40;;;;;;5038652;28;19916;-62
2022/02/12 11:42:04;;;;;;;;;;;23.10;30.40;;;;;;5045160;28;19905;-56
2022/02/12 11:44:43;;;;;;;;;;;23.10;30.50;;;;;;5045748;28;20054;-56
2022/02/12 11:47:10;;;;;;;;;;;23.10;30.50;;;;;;5041702;28;19909;-57
2022/02/12 11:49:37;;;;;;;;;;;23.10;30.50;;;;;;5051211;28;19924;-56
2022/02/12 11:52:09;;;;;;;;;;;23.10;30.50;;;;;;5046623;28;20251;-58
2022/02/12 11:54:46;;;;;;;;;;;23.20;30.60;;;;;;5051075;28;19928;-55
2022/02/12 11:57:14;;;;;;;;;;;23.10;30.50;;;;;;5044578;28;19927;-58
2022/02/12 11:59:40;;;;;;;;;;;23.20;31.20;;;;;;5034987;28;19916;-55
2022/02/12 12:02:06;;;;;;;;;;;23.10;30.50;;;;;;5048313;28;19916;-58
2022/02/12 12:04:33;;;;;;;;;;;23.10;30.50;;;;;;5030470;28;20426;-60
2022/02/12 12:06:59;;;;;;;;;;;23.10;30.50;;;;;;5026472;28;19909;-60
2022/02/12 12:09:25;;;;;;;;;;;23.10;30.50;;;;;;5053094;28;19923;-60
2022/02/12 12:12:13;;;;;;;;;;;23.10;30.50;;;;;;5044119;28;19905;-61
2022/02/12 12:14:39;;;;;;;;;;;23.10;30.40;;;;;;5036119;28;19919;-60
2022/02/12 12:17:05;;;;;;;;;;;23.20;30.50;;;;;;5039040;28;20370;-62
2022/02/12 12:19:34;;;;;;;;;;;23.20;30.40;;;;;;5053496;28;19995;-60
2022/02/12 12:22:01;;;;;;;;;;;23.20;30.40;;;;;;5052138;28;19916;-59
2022/02/12 12:24:27;;;;;;;;;;;23.20;30.30;;;;;;5042224;28;19904;-58
2022/02/12 12:26:53;;;;;;;;;;;23.20;30.20;;;;;;5044775;28;19927;-56
2022/02/12 12:32:06;;;;;;;;;;;23.20;30.10;;;;;;5048770;28;20015;-58
2022/02/12 12:34:32;;;;;;;;;;;23.20;30.00;;;;;;5045231;28;19909;-57
2022/02/12 12:36:58;;;;;;;;;;;23.30;30.00;;;;;;5039715;28;19905;-59
2022/02/12 12:39:33;;;;;;;;;;;23.30;30.00;;;;;;5055047;28;19915;-59
2022/02/12 12:41:59;;;;;;;;;;;23.30;30.00;;;;;;5043024;28;19978;-59
2022/02/12 12:44:25;;;;;;;;;;;23.30;30.20;;;;;;5049811;28;20239;-56
2022/02/12 12:46:51;;;;;;;;;;;23.30;30.30;;;;;;5046216;28;20004;-58
2022/02/12 12:49:26;;;;;;;;;;;23.40;30.30;;;;;;5047965;28;19936;-59
2022/02/12 12:51:52;;;;;;;;;;;23.40;30.30;;;;;;5038040;28;19909;-57
2022/02/12 12:54:31;;;;;;;;;;;23.40;30.30;;;;;;5049168;28;19912;-59
2022/02/12 12:56:58;;;;;;;;;;;23.40;30.30;;;;;;5027178;28;19912;-60
2022/02/12 12:59:24;;;;;;;;;;;23.50;30.30;;;;;;5044135;28;20336;-59
2022/02/12 13:02:06;;;;;;;;;;;23.50;30.30;;;;;;5043145;28;19916;-57
2022/02/12 13:04:35;;;;;;;;;;;23.50;30.30;;;;;;5034260;28;19966;-53
2022/02/12 13:07:01;;;;;;;;;;;23.50;30.30;;;;;;5037934;28;19952;-60
2022/02/12 13:09:30;;;;;;;;;;;23.50;30.30;;;;;;5044901;28;20405;-59
2022/02/12 13:12:15;;;;;;;;;;;23.50;30.20;;;;;;5052409;28;19904;-58
2022/02/12 13:14:44;;;;;;;;;;;23.60;30.30;;;;;;5042619;28;19916;-54
2022/02/12 13:17:11;;;;;;;;;;;23.60;30.20;;;;;;5045105;28;19966;-55
2022/02/12 13:19:37;;;;;;;;;;;23.60;30.20;;;;;;5048801;28;19994;-58
2022/02/12 13:22:03;;;;;;;;;;;23.70;30.20;;;;;;5052578;28;19940;-62
2022/02/12 13:24:33;;;;;;;;;;;23.70;30.20;;;;;;5047779;28;20239;-56
2022/02/12 13:26:58;;;;;;;;;;;23.70;30.20;;;;;;5052383;28;19917;-57
2022/02/12 13:29:25;;;;;;;;;;;23.70;30.20;;;;;;5046742;28;19939;-59
2022/02/12 13:31:54;;;;;;;;;;;23.70;30.10;;;;;;5048481;28;19905;-54
2022/02/12 13:34:20;;;;;;;;;;;23.80;30.10;;;;;;5049179;28;19905;-58
2022/02/12 13:36:47;;;;;;;;;;;23.80;30.10;;;;;;5049750;28;19905;-62
2022/02/12 13:39:20;;;;;;;;;;;23.90;30.70;;;;;;5035638;28;19909;-62
2022/02/12 13:41:53;;;;;;;;;;;23.90;30.10;;;;;;5043063;28;19916;-59
2022/02/12 13:44:45;;;;;;;;;;;23.90;30.00;;;;;;5034007;28;20251;-60
2022/02/12 13:47:11;;;;;;;;;;;23.90;30.00;;;;;;5046044;28;19905;-61
2022/02/12 13:49:38;;;;;;;;;;;23.90;30.00;;;;;;5046313;28;20362;-59
2022/02/12 13:52:04;;;;;;;;;;;24.00;30.00;;;;;;5029785;28;19905;-62
2022/02/12 13:54:31;;;;;;;;;;;24.00;30.00;;;;;;5037057;28;20377;-52
2022/02/12 13:56:59;;;;;;;;;;;24.00;30.00;;;;;;5047762;28;20339;-61
2022/02/12 13:59:25;;;;;;;;;;;24.00;30.00;;;;;;5032566;28;19909;-62
2022/02/12 14:01:51;;;;;;;;;;;24.00;30.00;;;;;;5031153;28;20228;-58
2022/02/12 14:04:17;;;;;;;;;;;24.00;30.00;;;;;;5030242;28;19964;-59
2022/02/12 14:06:46;;;;;;;;;;;24.10;30.00;;;;;;5022674;28;20320;-57
2022/02/12 14:09:15;;;;;;;;;;;24.10;30.00;;;;;;5026564;28;20309;-60
2022/02/12 14:11:42;;;;;;;;;;;24.10;29.90;;;;;;5025420;28;19929;-59
2022/02/12 14:14:08;;;;;;;;;;;24.10;29.90;;;;;;5026522;28;20224;-57
2022/02/12 14:16:34;;;;;;;;;;;24.10;29.90;;;;;;5025710;28;19905;-52
2022/02/12 14:19:00;;;;;;;;;;;24.10;29.80;;;;;;5020680;28;20311;-55
2022/02/12 14:21:25;;;;;;;;;;;24.10;29.80;;;;;;5029187;28;19947;-53
2022/02/12 14:23:51;;;;;;;;;;;24.10;29.70;;;;;;5028476;28;19905;-57